sensor_id;sensor_type;location;lat;lon;timestamp;P1;durP1;ratioP1;P2;durP2;ratioP2
77984;SDS011;67177;47.240;-1.546;2023-02-01T00:02:04;6.97;;;2.43;;
77984;SDS011;67177;47.240;-1.546;2023-02-01T00:04:29;7.47;;;2.20;;
77984;SDS011;67177;47.240;-1.546;2023-02-01T00:06:55;8.23;;;2.43;;
77984;SDS011;67177;47.240;-1.546;2023-02-01T00:09:21;6.10;;;2.25;;
77984;SDS011;67177;47.240;-1.546;2023-02-01T00:11:46;6.47;;;2.10;;
77984;SDS011;67177;47.240;-1.546;2023-02-01T00:14:12;6.10;;;2.17;;
77984;SDS011;67177;47.240;-1.546;2023-02-01T00:16:38;9.82;;;2.80;;
77984;SDS011;67177;47.240;-1.546;2023-02-01T00:19:05;7.23;;;2.60;;
77984;SDS011;67177;47.240;-1.546;2023-02-01T00:21:32;9.15;;;2.75;;
77984;SDS011;67177;47.240;-1.546;2023-02-01T00:23:58;6.90;;;2.15;;
77984;SDS011;67177;47.240;-1.546;2023-02-01T00:26:35;8.13;;;2.83;;
77984;SDS011;67177;47.240;-1.546;2023-02-01T00:29:03;8.88;;;3.05;;
77984;SDS011;67177;47.240;-1.546;2023-02-01T00:31:30;10.85;;;2.97;;
77984;SDS011;67177;47.240;-1.546;2023-02-01T00:33:56;10.18;;;2.92;;
77984;SDS011;67177;47.240;-1.546;2023-02-01T00:36:22;10.48;;;2.72;;
77984;SDS011;67177;47.240;-1.546;2023-02-01T00:38:48;11.87;;;3.20;;
77984;SDS011;67177;47.240;-1.546;2023-02-01T00:41:16;11.57;;;3.08;;
77984;SDS011;67177;47.240;-1.546;2023-02-01T00:43:43;9.60;;;3.10;;
77984;SDS011;67177;47.240;-1.546;2023-02-01T00:46:09;9.73;;;3.78;;
77984;SDS011;67177;47.240;-1.546;2023-02-01T00:48:36;13.05;;;4.47;;
77984;SDS011;67177;47.240;-1.546;2023-02-01T00:51:05;9.95;;;3.47;;
77984;SDS011;67177;47.240;-1.546;2023-02-01T00:53:33;12.35;;;3.60;;
77984;SDS011;67177;47.240;-1.546;2023-02-01T00:55:59;11.40;;;3.60;;
77984;SDS011;67177;47.240;-1.546;2023-02-01T00:58:25;10.82;;;3.17;;
77984;SDS011;67177;47.240;-1.546;2023-02-01T01:01:26;10.18;;;3.35;;
77984;SDS011;67177;47.240;-1.546;2023-02-01T01:03:47;9.85;;;3.38;;
77984;SDS011;67177;47.240;-1.546;2023-02-01T01:06:16;11.00;;;4.28;;
77984;SDS011;67177;47.240;-1.546;2023-02-01T01:08:45;8.53;;;3.30;;
77984;SDS011;67177;47.240;-1.546;2023-02-01T01:11:13;10.80;;;3.50;;
77984;SDS011;67177;47.240;-1.546;2023-02-01T01:13:50;10.77;;;3.80;;
77984;SDS011;67177;47.240;-1.546;2023-02-01T01:16:17;12.30;;;4.50;;
77984;SDS011;67177;47.240;-1.546;2023-02-01T01:18:44;11.48;;;3.67;;
77984;SDS011;67177;47.240;-1.546;2023-02-01T01:21:11;11.75;;;3.80;;
77984;SDS011;67177;47.240;-1.546;2023-02-01T01:23:38;9.63;;;3.97;;
77984;SDS011;67177;47.240;-1.546;2023-02-01T01:26:05;12.47;;;3.80;;
77984;SDS011;67177;47.240;-1.546;2023-02-01T01:28:32;9.30;;;3.53;;
77984;SDS011;67177;47.240;-1.546;2023-02-01T01:30:58;12.98;;;3.67;;
77984;SDS011;67177;47.240;-1.546;2023-02-01T01:33:23;10.13;;;3.70;;
77984;SDS011;67177;47.240;-1.546;2023-02-01T01:35:49;10.37;;;3.40;;
77984;SDS011;67177;47.240;-1.546;2023-02-01T01:38:15;8.93;;;3.00;;
77984;SDS011;67177;47.240;-1.546;2023-02-01T01:40:44;8.13;;;2.93;;
77984;SDS011;67177;47.240;-1.546;2023-02-01T01:43:17;9.05;;;3.40;;
77984;SDS011;67177;47.240;-1.546;2023-02-01T01:45:48;8.02;;;3.10;;
77984;SDS011;67177;47.240;-1.546;2023-02-01T01:50:52;9.13;;;3.23;;
77984;SDS011;67177;47.240;-1.546;2023-02-01T01:53:27;8.55;;;3.00;;
77984;SDS011;67177;47.240;-1.546;2023-02-01T01:55:58;10.05;;;3.38;;
77984;SDS011;67177;47.240;-1.546;2023-02-01T01:58:26;7.85;;;3.25;;
77984;SDS011;67177;47.240;-1.546;2023-02-01T02:00:54;7.88;;;2.78;;
77984;SDS011;67177;47.240;-1.546;2023-02-01T02:03:22;7.87;;;2.70;;
77984;SDS011;67177;47.240;-1.546;2023-02-01T02:05:52;10.77;;;3.15;;
77984;SDS011;67177;47.240;-1.546;2023-02-01T02:08:22;8.70;;;2.83;;
77984;SDS011;67177;47.240;-1.546;2023-02-01T02:10:50;10.45;;;3.00;;
77984;SDS011;67177;47.240;-1.546;2023-02-01T02:13:25;9.57;;;3.40;;
77984;SDS011;67177;47.240;-1.546;2023-02-01T02:21:27;7.20;;;2.35;;
77984;SDS011;67177;47.240;-1.546;2023-02-01T02:26:46;5.05;;;1.55;;
77984;SDS011;67177;47.240;-1.546;2023-02-01T02:32:21;4.75;;;1.58;;
77984;SDS011;67177;47.240;-1.546;2023-02-01T02:40:26;3.97;;;1.40;;
77984;SDS011;67177;47.240;-1.546;2023-02-01T02:43:23;5.57;;;1.30;;
77984;SDS011;67177;47.240;-1.546;2023-02-01T02:46:26;5.55;;;1.77;;
77984;SDS011;67177;47.240;-1.546;2023-02-01T02:49:32;8.27;;;2.20;;
77984;SDS011;67177;47.240;-1.546;2023-02-01T02:52:30;7.70;;;2.30;;
77984;SDS011;67177;47.240;-1.546;2023-02-01T02:55:16;7.28;;;1.95;;
77984;SDS011;67177;47.240;-1.546;2023-02-01T02:57:42;4.87;;;1.73;;
77984;SDS011;67177;47.240;-1.546;2023-02-01T03:00:29;5.72;;;1.70;;
77984;SDS011;67177;47.240;-1.546;2023-02-01T03:03:17;6.28;;;1.80;;
77984;SDS011;67177;47.240;-1.546;2023-02-01T03:06:01;5.22;;;1.73;;
77984;SDS011;67177;47.240;-1.546;2023-02-01T03:08:30;6.07;;;1.80;;
77984;SDS011;67177;47.240;-1.546;2023-02-01T03:16:41;9.82;;;3.20;;
77984;SDS011;67177;47.240;-1.546;2023-02-01T03:19:14;8.75;;;2.75;;
77984;SDS011;67177;47.240;-1.546;2023-02-01T03:21:47;7.23;;;2.20;;
77984;SDS011;67177;47.240;-1.546;2023-02-01T03:24:24;7.43;;;2.28;;
77984;SDS011;67177;47.240;-1.546;2023-02-01T03:27:12;6.88;;;2.50;;
77984;SDS011;67177;47.240;-1.546;2023-02-01T03:32:20;8.40;;;2.42;;
77984;SDS011;67177;47.240;-1.546;2023-02-01T03:34:48;7.80;;;2.40;;
77984;SDS011;67177;47.240;-1.546;2023-02-01T03:37:21;5.82;;;1.80;;
77984;SDS011;67177;47.240;-1.546;2023-02-01T03:39:58;5.97;;;1.77;;
77984;SDS011;67177;47.240;-1.546;2023-02-01T03:42:35;4.40;;;1.40;;
77984;SDS011;67177;47.240;-1.546;2023-02-01T03:45:06;4.38;;;1.30;;
77984;SDS011;67177;47.240;-1.546;2023-02-01T03:47:39;3.80;;;1.07;;
77984;SDS011;67177;47.240;-1.546;2023-02-01T03:50:09;3.67;;;1.00;;
77984;SDS011;67177;47.240;-1.546;2023-02-01T03:52:39;4.40;;;1.15;;
77984;SDS011;67177;47.240;-1.546;2023-02-01T03:55:08;3.85;;;1.10;;
77984;SDS011;67177;47.240;-1.546;2023-02-01T03:57:37;3.45;;;0.95;;
77984;SDS011;67177;47.240;-1.546;2023-02-01T04:00:09;4.10;;;0.80;;
77984;SDS011;67177;47.240;-1.546;2023-02-01T04:02:42;3.22;;;0.93;;
77984;SDS011;67177;47.240;-1.546;2023-02-01T04:05:08;3.90;;;1.10;;
77984;SDS011;67177;47.240;-1.546;2023-02-01T04:07:34;2.88;;;0.90;;
77984;SDS011;67177;47.240;-1.546;2023-02-01T04:09:59;3.75;;;0.80;;
77984;SDS011;67177;47.240;-1.546;2023-02-01T04:12:25;4.13;;;1.07;;
77984;SDS011;67177;47.240;-1.546;2023-02-01T04:14:51;4.10;;;1.17;;
77984;SDS011;67177;47.240;-1.546;2023-02-01T04:17:16;3.63;;;1.10;;
77984;SDS011;67177;47.240;-1.546;2023-02-01T04:19:42;5.03;;;1.20;;
77984;SDS011;67177;47.240;-1.546;2023-02-01T04:22:08;3.53;;;0.90;;
77984;SDS011;67177;47.240;-1.546;2023-02-01T04:24:33;3.13;;;0.80;;
77984;SDS011;67177;47.240;-1.546;2023-02-01T04:26:59;4.68;;;1.00;;
77984;SDS011;67177;47.240;-1.546;2023-02-01T04:29:25;3.50;;;1.00;;
77984;SDS011;67177;47.240;-1.546;2023-02-01T04:31:51;4.97;;;1.08;;
77984;SDS011;67177;47.240;-1.546;2023-02-01T04:34:17;4.93;;;1.10;;
77984;SDS011;67177;47.240;-1.546;2023-02-01T04:36:42;4.23;;;1.17;;
77984;SDS011;67177;47.240;-1.546;2023-02-01T04:39:08;8.88;;;1.90;;
77984;SDS011;67177;47.240;-1.546;2023-02-01T04:41:34;6.60;;;2.05;;
77984;SDS011;67177;47.240;-1.546;2023-02-01T04:44:00;6.70;;;1.70;;
77984;SDS011;67177;47.240;-1.546;2023-02-01T04:46:26;8.23;;;2.40;;
77984;SDS011;67177;47.240;-1.546;2023-02-01T04:48:52;7.93;;;2.20;;
77984;SDS011;67177;47.240;-1.546;2023-02-01T04:51:17;6.33;;;1.90;;
77984;SDS011;67177;47.240;-1.546;2023-02-01T04:53:43;6.65;;;2.00;;
77984;SDS011;67177;47.240;-1.546;2023-02-01T04:56:09;6.10;;;1.90;;
77984;SDS011;67177;47.240;-1.546;2023-02-01T04:58:35;5.80;;;1.70;;
77984;SDS011;67177;47.240;-1.546;2023-02-01T05:01:02;5.93;;;1.80;;
77984;SDS011;67177;47.240;-1.546;2023-02-01T05:03:29;9.02;;;2.00;;
77984;SDS011;67177;47.240;-1.546;2023-02-01T05:05:56;6.67;;;2.27;;
77984;SDS011;67177;47.240;-1.546;2023-02-01T05:08:21;9.75;;;2.30;;
77984;SDS011;67177;47.240;-1.546;2023-02-01T05:10:47;10.27;;;2.37;;
77984;SDS011;67177;47.240;-1.546;2023-02-01T05:13:13;7.90;;;1.90;;
77984;SDS011;67177;47.240;-1.546;2023-02-01T05:15:57;6.63;;;1.95;;
77984;SDS011;67177;47.240;-1.546;2023-02-01T05:18:23;8.87;;;2.07;;
77984;SDS011;67177;47.240;-1.546;2023-02-01T05:20:48;9.23;;;2.22;;
77984;SDS011;67177;47.240;-1.546;2023-02-01T05:23:14;12.20;;;2.40;;
77984;SDS011;67177;47.240;-1.546;2023-02-01T05:25:40;10.17;;;2.33;;
77984;SDS011;67177;47.240;-1.546;2023-02-01T05:28:05;8.93;;;2.70;;
77984;SDS011;67177;47.240;-1.546;2023-02-01T05:30:32;9.60;;;2.00;;
77984;SDS011;67177;47.240;-1.546;2023-02-01T05:33:00;8.27;;;2.13;;
77984;SDS011;67177;47.240;-1.546;2023-02-01T05:35:26;8.43;;;1.80;;
77984;SDS011;67177;47.240;-1.546;2023-02-01T05:37:52;8.32;;;2.08;;
77984;SDS011;67177;47.240;-1.546;2023-02-01T05:40:18;7.87;;;2.17;;
77984;SDS011;67177;47.240;-1.546;2023-02-01T05:42:43;10.52;;;2.10;;
77984;SDS011;67177;47.240;-1.546;2023-02-01T05:45:09;6.47;;;1.92;;
77984;SDS011;67177;47.240;-1.546;2023-02-01T05:47:35;7.90;;;2.08;;
77984;SDS011;67177;47.240;-1.546;2023-02-01T05:50:01;7.33;;;1.90;;
77984;SDS011;67177;47.240;-1.546;2023-02-01T05:52:27;8.60;;;2.03;;
77984;SDS011;67177;47.240;-1.546;2023-02-01T05:54:53;7.80;;;2.50;;
77984;SDS011;67177;47.240;-1.546;2023-02-01T05:57:19;7.90;;;2.20;;
77984;SDS011;67177;47.240;-1.546;2023-02-01T05:59:44;9.63;;;2.30;;
77984;SDS011;67177;47.240;-1.546;2023-02-01T06:02:11;8.75;;;2.40;;
77984;SDS011;67177;47.240;-1.546;2023-02-01T06:04:37;9.67;;;2.23;;
77984;SDS011;67177;47.240;-1.546;2023-02-01T06:07:03;8.80;;;1.95;;
77984;SDS011;67177;47.240;-1.546;2023-02-01T06:09:29;7.38;;;2.10;;
77984;SDS011;67177;47.240;-1.546;2023-02-01T06:11:55;9.23;;;2.67;;
77984;SDS011;67177;47.240;-1.546;2023-02-01T06:14:20;9.23;;;2.22;;
77984;SDS011;67177;47.240;-1.546;2023-02-01T06:16:46;10.03;;;2.47;;
77984;SDS011;67177;47.240;-1.546;2023-02-01T06:19:12;11.20;;;2.33;;
77984;SDS011;67177;47.240;-1.546;2023-02-01T06:21:38;8.18;;;2.13;;
77984;SDS011;67177;47.240;-1.546;2023-02-01T06:24:04;11.13;;;2.67;;
77984;SDS011;67177;47.240;-1.546;2023-02-01T06:26:31;9.47;;;2.40;;
77984;SDS011;67177;47.240;-1.546;2023-02-01T06:28:56;12.23;;;2.60;;
77984;SDS011;67177;47.240;-1.546;2023-02-01T06:31:22;9.93;;;2.97;;
77984;SDS011;67177;47.240;-1.546;2023-02-01T06:33:48;7.60;;;2.53;;
77984;SDS011;67177;47.240;-1.546;2023-02-01T06:36:14;6.78;;;1.77;;
77984;SDS011;67177;47.240;-1.546;2023-02-01T06:38:41;10.82;;;2.30;;
77984;SDS011;67177;47.240;-1.546;2023-02-01T06:41:06;13.33;;;2.40;;
77984;SDS011;67177;47.240;-1.546;2023-02-01T06:43:32;13.23;;;2.50;;
77984;SDS011;67177;47.240;-1.546;2023-02-01T06:46:02;11.23;;;2.25;;
77984;SDS011;67177;47.240;-1.546;2023-02-01T06:48:30;10.60;;;2.28;;
77984;SDS011;67177;47.240;-1.546;2023-02-01T06:50:56;11.17;;;2.30;;
77984;SDS011;67177;47.240;-1.546;2023-02-01T06:53:22;9.77;;;2.25;;
77984;SDS011;67177;47.240;-1.546;2023-02-01T06:55:51;12.05;;;2.15;;
77984;SDS011;67177;47.240;-1.546;2023-02-01T06:58:18;9.10;;;2.27;;
77984;SDS011;67177;47.240;-1.546;2023-02-01T07:00:43;10.38;;;2.30;;
77984;SDS011;67177;47.240;-1.546;2023-02-01T07:03:09;13.47;;;2.70;;
77984;SDS011;67177;47.240;-1.546;2023-02-01T07:05:34;11.27;;;2.10;;
77984;SDS011;67177;47.240;-1.546;2023-02-01T07:08:00;11.20;;;2.53;;
77984;SDS011;67177;47.240;-1.546;2023-02-01T07:10:26;10.93;;;2.37;;
77984;SDS011;67177;47.240;-1.546;2023-02-01T07:12:51;7.53;;;2.10;;
77984;SDS011;67177;47.240;-1.546;2023-02-01T07:15:17;11.63;;;2.30;;
77984;SDS011;67177;47.240;-1.546;2023-02-01T07:17:42;7.07;;;1.52;;
77984;SDS011;67177;47.240;-1.546;2023-02-01T07:20:09;6.90;;;1.65;;
77984;SDS011;67177;47.240;-1.546;2023-02-01T07:22:35;9.13;;;2.08;;
77984;SDS011;67177;47.240;-1.546;2023-02-01T07:25:01;8.63;;;2.20;;
77984;SDS011;67177;47.240;-1.546;2023-02-01T07:27:27;10.27;;;2.60;;
77984;SDS011;67177;47.240;-1.546;2023-02-01T07:29:53;9.63;;;1.98;;
77984;SDS011;67177;47.240;-1.546;2023-02-01T07:32:20;9.70;;;2.40;;
77984;SDS011;67177;47.240;-1.546;2023-02-01T07:34:46;12.32;;;2.10;;
77984;SDS011;67177;47.240;-1.546;2023-02-01T07:37:11;12.43;;;2.50;;
77984;SDS011;67177;47.240;-1.546;2023-02-01T07:39:37;12.32;;;2.45;;
77984;SDS011;67177;47.240;-1.546;2023-02-01T07:42:03;10.27;;;2.40;;
77984;SDS011;67177;47.240;-1.546;2023-02-01T07:44:28;9.32;;;2.33;;
77984;SDS011;67177;47.240;-1.546;2023-02-01T07:46:54;12.50;;;2.80;;
77984;SDS011;67177;47.240;-1.546;2023-02-01T07:49:19;10.87;;;2.37;;
77984;SDS011;67177;47.240;-1.546;2023-02-01T07:51:45;9.70;;;2.38;;
77984;SDS011;67177;47.240;-1.546;2023-02-01T07:54:11;8.87;;;2.60;;
77984;SDS011;67177;47.240;-1.546;2023-02-01T07:56:36;12.90;;;3.90;;
77984;SDS011;67177;47.240;-1.546;2023-02-01T07:59:02;18.45;;;5.55;;
77984;SDS011;67177;47.240;-1.546;2023-02-01T08:01:28;14.43;;;5.10;;
77984;SDS011;67177;47.240;-1.546;2023-02-01T08:03:55;14.60;;;4.63;;
77984;SDS011;67177;47.240;-1.546;2023-02-01T08:06:25;12.68;;;4.30;;
77984;SDS011;67177;47.240;-1.546;2023-02-01T08:08:53;10.95;;;3.60;;
77984;SDS011;67177;47.240;-1.546;2023-02-01T08:11:19;14.03;;;3.33;;
77984;SDS011;67177;47.240;-1.546;2023-02-01T08:13:46;9.98;;;2.70;;
77984;SDS011;67177;47.240;-1.546;2023-02-01T08:16:13;9.80;;;2.45;;
77984;SDS011;67177;47.240;-1.546;2023-02-01T08:18:40;8.20;;;1.95;;
77984;SDS011;67177;47.240;-1.546;2023-02-01T08:23:34;7.27;;;1.57;;
77984;SDS011;67177;47.240;-1.546;2023-02-01T08:26:07;5.97;;;1.40;;
77984;SDS011;67177;47.240;-1.546;2023-02-01T08:28:45;5.25;;;1.10;;
77984;SDS011;67177;47.240;-1.546;2023-02-01T08:31:13;5.47;;;1.40;;
77984;SDS011;67177;47.240;-1.546;2023-02-01T08:33:40;3.63;;;1.05;;
77984;SDS011;67177;47.240;-1.546;2023-02-01T08:36:07;5.70;;;1.40;;
77984;SDS011;67177;47.240;-1.546;2023-02-01T08:38:35;4.53;;;0.88;;
77984;SDS011;67177;47.240;-1.546;2023-02-01T08:41:05;3.22;;;0.90;;
77984;SDS011;67177;47.240;-1.546;2023-02-01T08:43:33;6.07;;;0.93;;
77984;SDS011;67177;47.240;-1.546;2023-02-01T08:45:58;7.23;;;1.37;;
77984;SDS011;67177;47.240;-1.546;2023-02-01T08:48:24;5.13;;;1.20;;
77984;SDS011;67177;47.240;-1.546;2023-02-01T08:50:50;6.23;;;1.23;;
77984;SDS011;67177;47.240;-1.546;2023-02-01T08:53:15;6.60;;;1.10;;
77984;SDS011;67177;47.240;-1.546;2023-02-01T08:55:41;7.60;;;1.50;;
77984;SDS011;67177;47.240;-1.546;2023-02-01T08:58:07;5.93;;;1.30;;
77984;SDS011;67177;47.240;-1.546;2023-02-01T09:00:32;7.23;;;1.57;;
77984;SDS011;67177;47.240;-1.546;2023-02-01T09:02:58;6.30;;;1.38;;
77984;SDS011;67177;47.240;-1.546;2023-02-01T09:05:24;12.05;;;2.08;;
77984;SDS011;67177;47.240;-1.546;2023-02-01T09:07:52;10.93;;;2.70;;
77984;SDS011;67177;47.240;-1.546;2023-02-01T09:10:18;8.73;;;2.60;;
77984;SDS011;67177;47.240;-1.546;2023-02-01T09:12:44;10.10;;;2.30;;
77984;SDS011;67177;47.240;-1.546;2023-02-01T09:15:09;9.27;;;2.30;;
77984;SDS011;67177;47.240;-1.546;2023-02-01T09:17:35;11.05;;;2.60;;
77984;SDS011;67177;47.240;-1.546;2023-02-01T09:20:01;9.85;;;2.42;;
77984;SDS011;67177;47.240;-1.546;2023-02-01T09:22:28;9.57;;;1.93;;
77984;SDS011;67177;47.240;-1.546;2023-02-01T09:24:54;9.77;;;2.33;;
77984;SDS011;67177;47.240;-1.546;2023-02-01T09:27:20;11.60;;;2.57;;
77984;SDS011;67177;47.240;-1.546;2023-02-01T09:29:46;9.98;;;2.20;;
77984;SDS011;67177;47.240;-1.546;2023-02-01T09:32:17;11.13;;;2.42;;
77984;SDS011;67177;47.240;-1.546;2023-02-01T09:34:43;10.30;;;2.60;;
77984;SDS011;67177;47.240;-1.546;2023-02-01T09:37:09;8.23;;;2.13;;
77984;SDS011;67177;47.240;-1.546;2023-02-01T09:39:35;14.77;;;3.07;;
77984;SDS011;67177;47.240;-1.546;2023-02-01T09:47:36;11.87;;;2.47;;
77984;SDS011;67177;47.240;-1.546;2023-02-01T09:52:43;15.30;;;3.08;;
77984;SDS011;67177;47.240;-1.546;2023-02-01T09:55:15;10.48;;;2.13;;
77984;SDS011;67177;47.240;-1.546;2023-02-01T09:57:52;11.85;;;2.58;;
77984;SDS011;67177;47.240;-1.546;2023-02-01T10:00:24;9.83;;;2.03;;
77984;SDS011;67177;47.240;-1.546;2023-02-01T10:02:54;9.65;;;1.90;;
77984;SDS011;67177;47.240;-1.546;2023-02-01T10:05:25;8.35;;;2.00;;
77984;SDS011;67177;47.240;-1.546;2023-02-01T10:08:28;8.23;;;1.60;;
77984;SDS011;67177;47.240;-1.546;2023-02-01T10:13:59;6.40;;;1.37;;
77984;SDS011;67177;47.240;-1.546;2023-02-01T10:22:04;9.68;;;1.77;;
77984;SDS011;67177;47.240;-1.546;2023-02-01T10:24:45;10.32;;;2.53;;
77984;SDS011;67177;47.240;-1.546;2023-02-01T10:27:22;10.32;;;2.13;;
77984;SDS011;67177;47.240;-1.546;2023-02-01T10:30:04;9.85;;;1.90;;
77984;SDS011;67177;47.240;-1.546;2023-02-01T10:32:39;7.60;;;2.10;;
77984;SDS011;67177;47.240;-1.546;2023-02-01T10:35:22;6.82;;;1.92;;
77984;SDS011;67177;47.240;-1.546;2023-02-01T10:37:52;8.05;;;2.35;;
77984;SDS011;67177;47.240;-1.546;2023-02-01T10:40:22;7.45;;;1.90;;
77984;SDS011;67177;47.240;-1.546;2023-02-01T10:42:51;5.67;;;1.50;;
77984;SDS011;67177;47.240;-1.546;2023-02-01T10:45:23;7.93;;;1.77;;
77984;SDS011;67177;47.240;-1.546;2023-02-01T10:47:52;5.32;;;1.48;;
77984;SDS011;67177;47.240;-1.546;2023-02-01T10:50:37;7.63;;;2.90;;
77984;SDS011;67177;47.240;-1.546;2023-02-01T10:53:11;13.00;;;4.78;;
77984;SDS011;67177;47.240;-1.546;2023-02-01T10:55:51;10.10;;;3.53;;
77984;SDS011;67177;47.240;-1.546;2023-02-01T10:58:25;7.22;;;2.80;;
77984;SDS011;67177;47.240;-1.546;2023-02-01T11:01:02;7.88;;;3.20;;
77984;SDS011;67177;47.240;-1.546;2023-02-01T11:06:13;9.45;;;2.85;;
77984;SDS011;67177;47.240;-1.546;2023-02-01T11:08:46;7.60;;;1.93;;
77984;SDS011;67177;47.240;-1.546;2023-02-01T11:11:17;7.60;;;2.00;;
77984;SDS011;67177;47.240;-1.546;2023-02-01T11:13:43;10.20;;;2.47;;
77984;SDS011;67177;47.240;-1.546;2023-02-01T11:16:13;7.03;;;1.90;;
77984;SDS011;67177;47.240;-1.546;2023-02-01T11:18:40;10.80;;;2.20;;
77984;SDS011;67177;47.240;-1.546;2023-02-01T11:21:07;7.75;;;1.80;;
77984;SDS011;67177;47.240;-1.546;2023-02-01T11:23:38;10.23;;;2.40;;
77984;SDS011;67177;47.240;-1.546;2023-02-01T11:26:13;8.85;;;2.00;;
77984;SDS011;67177;47.240;-1.546;2023-02-01T11:29:02;8.25;;;1.90;;
77984;SDS011;67177;47.240;-1.546;2023-02-01T11:31:30;8.17;;;2.00;;
77984;SDS011;67177;47.240;-1.546;2023-02-01T11:33:59;7.07;;;1.95;;
77984;SDS011;67177;47.240;-1.546;2023-02-01T11:36:42;8.57;;;1.70;;
77984;SDS011;67177;47.240;-1.546;2023-02-01T11:41:40;8.55;;;1.83;;
77984;SDS011;67177;47.240;-1.546;2023-02-01T11:44:38;10.27;;;2.17;;
77984;SDS011;67177;47.240;-1.546;2023-02-01T11:49:59;9.93;;;2.47;;
77984;SDS011;67177;47.240;-1.546;2023-02-01T11:55:29;11.75;;;2.38;;
77984;SDS011;67177;47.240;-1.546;2023-02-01T11:58:43;7.30;;;1.80;;
77984;SDS011;67177;47.240;-1.546;2023-02-01T12:06:41;12.48;;;2.40;;
77984;SDS011;67177;47.240;-1.546;2023-02-01T12:20:49;10.45;;;2.20;;
77984;SDS011;67177;47.240;-1.546;2023-02-01T12:26:22;7.73;;;1.60;;
77984;SDS011;67177;47.240;-1.546;2023-02-01T12:32:37;10.73;;;3.60;;
77984;SDS011;67177;47.240;-1.546;2023-02-01T12:35:33;11.38;;;2.42;;
77984;SDS011;67177;47.240;-1.546;2023-02-01T12:46:14;12.27;;;2.65;;
77984;SDS011;67177;47.240;-1.546;2023-02-01T12:49:00;11.90;;;2.30;;
77984;SDS011;67177;47.240;-1.546;2023-02-01T12:51:33;11.52;;;2.67;;
77984;SDS011;67177;47.240;-1.546;2023-02-01T12:54:09;13.13;;;2.37;;
77984;SDS011;67177;47.240;-1.546;2023-02-01T12:59:13;12.15;;;2.78;;
77984;SDS011;67177;47.240;-1.546;2023-02-01T13:02:01;13.00;;;2.38;;
77984;SDS011;67177;47.240;-1.546;2023-02-01T13:04:52;10.63;;;2.10;;
77984;SDS011;67177;47.240;-1.546;2023-02-01T13:07:28;12.07;;;2.43;;
77984;SDS011;67177;47.240;-1.546;2023-02-01T13:10:07;9.23;;;2.38;;
77984;SDS011;67177;47.240;-1.546;2023-02-01T13:12:38;12.60;;;2.65;;
77984;SDS011;67177;47.240;-1.546;2023-02-01T13:15:15;11.73;;;2.47;;
77984;SDS011;67177;47.240;-1.546;2023-02-01T13:17:51;12.98;;;2.55;;
77984;SDS011;67177;47.240;-1.546;2023-02-01T13:20:24;10.63;;;2.20;;
77984;SDS011;67177;47.240;-1.546;2023-02-01T13:23:04;9.05;;;2.00;;
77984;SDS011;67177;47.240;-1.546;2023-02-01T13:25:56;11.43;;;2.72;;
77984;SDS011;67177;47.240;-1.546;2023-02-01T13:28:27;9.25;;;2.30;;
77984;SDS011;67177;47.240;-1.546;2023-02-01T13:41:57;8.60;;;1.83;;
77984;SDS011;67177;47.240;-1.546;2023-02-01T13:44:39;8.88;;;1.92;;
77984;SDS011;67177;47.240;-1.546;2023-02-01T13:52:54;7.38;;;2.03;;
77984;SDS011;67177;47.240;-1.546;2023-02-01T13:55:26;10.50;;;2.58;;
77984;SDS011;67177;47.240;-1.546;2023-02-01T13:57:59;7.13;;;1.98;;
77984;SDS011;67177;47.240;-1.546;2023-02-01T14:00:46;11.43;;;2.30;;
77984;SDS011;67177;47.240;-1.546;2023-02-01T14:03:14;9.82;;;2.35;;
77984;SDS011;67177;47.240;-1.546;2023-02-01T14:08:13;10.43;;;2.35;;
77984;SDS011;67177;47.240;-1.546;2023-02-01T14:10:55;8.55;;;1.90;;
77984;SDS011;67177;47.240;-1.546;2023-02-01T14:13:34;13.70;;;2.83;;
77984;SDS011;67177;47.240;-1.546;2023-02-01T14:23:43;22.75;;;7.47;;
77984;SDS011;67177;47.240;-1.546;2023-02-01T14:26:14;16.97;;;6.27;;
77984;SDS011;67177;47.240;-1.546;2023-02-01T14:34:29;9.65;;;2.22;;
77984;SDS011;67177;47.240;-1.546;2023-02-01T14:42:33;8.75;;;2.10;;
77984;SDS011;67177;47.240;-1.546;2023-02-01T14:47:51;9.23;;;2.10;;
77984;SDS011;67177;47.240;-1.546;2023-02-01T15:01:24;9.43;;;2.25;;
77984;SDS011;67177;47.240;-1.546;2023-02-01T15:06:26;10.43;;;1.77;;
77984;SDS011;67177;47.240;-1.546;2023-02-01T15:09:15;12.05;;;2.22;;
77984;SDS011;67177;47.240;-1.546;2023-02-01T15:14:20;7.85;;;2.03;;
77984;SDS011;67177;47.240;-1.546;2023-02-01T15:16:46;12.20;;;2.33;;
77984;SDS011;67177;47.240;-1.546;2023-02-01T15:19:18;9.68;;;1.95;;
77984;SDS011;67177;47.240;-1.546;2023-02-01T15:21:47;8.60;;;1.70;;
77984;SDS011;67177;47.240;-1.546;2023-02-01T15:24:18;7.95;;;1.55;;
77984;SDS011;67177;47.240;-1.546;2023-02-01T15:26:46;9.68;;;2.55;;
77984;SDS011;67177;47.240;-1.546;2023-02-01T15:29:12;13.73;;;2.57;;
77984;SDS011;67177;47.240;-1.546;2023-02-01T15:31:40;11.70;;;2.13;;
77984;SDS011;67177;47.240;-1.546;2023-02-01T15:34:10;13.10;;;2.40;;
77984;SDS011;67177;47.240;-1.546;2023-02-01T15:36:37;13.20;;;2.57;;
77984;SDS011;67177;47.240;-1.546;2023-02-01T15:41:37;10.90;;;2.13;;
77984;SDS011;67177;47.240;-1.546;2023-02-01T15:44:05;14.10;;;2.50;;
77984;SDS011;67177;47.240;-1.546;2023-02-01T15:46:51;8.95;;;1.88;;
77984;SDS011;67177;47.240;-1.546;2023-02-01T15:49:29;5.30;;;1.50;;
77984;SDS011;67177;47.240;-1.546;2023-02-01T15:52:01;10.40;;;1.85;;
77984;SDS011;67177;47.240;-1.546;2023-02-01T15:54:28;7.07;;;1.52;;
77984;SDS011;67177;47.240;-1.546;2023-02-01T15:57:07;7.00;;;1.47;;
77984;SDS011;67177;47.240;-1.546;2023-02-01T15:59:37;8.95;;;1.70;;
77984;SDS011;67177;47.240;-1.546;2023-02-01T16:02:28;7.50;;;1.80;;
77984;SDS011;67177;47.240;-1.546;2023-02-01T16:05:04;8.40;;;1.70;;
77984;SDS011;67177;47.240;-1.546;2023-02-01T16:08:00;7.30;;;1.40;;
77984;SDS011;67177;47.240;-1.546;2023-02-01T16:10:38;8.05;;;1.70;;
77984;SDS011;67177;47.240;-1.546;2023-02-01T16:13:09;7.78;;;1.40;;
77984;SDS011;67177;47.240;-1.546;2023-02-01T16:15:35;5.00;;;0.90;;
77984;SDS011;67177;47.240;-1.546;2023-02-01T16:18:01;5.43;;;1.10;;
77984;SDS011;67177;47.240;-1.546;2023-02-01T16:20:27;6.18;;;1.50;;
77984;SDS011;67177;47.240;-1.546;2023-02-01T16:22:52;7.20;;;1.40;;
77984;SDS011;67177;47.240;-1.546;2023-02-01T16:25:18;4.50;;;1.20;;
77984;SDS011;67177;47.240;-1.546;2023-02-01T16:27:44;4.20;;;0.90;;
77984;SDS011;67177;47.240;-1.546;2023-02-01T16:30:09;5.28;;;1.10;;
77984;SDS011;67177;47.240;-1.546;2023-02-01T16:32:35;4.15;;;1.00;;
77984;SDS011;67177;47.240;-1.546;2023-02-01T16:35:05;4.97;;;1.13;;
77984;SDS011;67177;47.240;-1.546;2023-02-01T16:37:40;8.73;;;1.50;;
77984;SDS011;67177;47.240;-1.546;2023-02-01T16:40:08;10.73;;;2.50;;
77984;SDS011;67177;47.240;-1.546;2023-02-01T16:42:38;10.00;;;2.40;;
77984;SDS011;67177;47.240;-1.546;2023-02-01T16:45:04;11.20;;;2.13;;
77984;SDS011;67177;47.240;-1.546;2023-02-01T16:47:30;9.35;;;2.08;;
77984;SDS011;67177;47.240;-1.546;2023-02-01T16:49:56;10.38;;;2.38;;
77984;SDS011;67177;47.240;-1.546;2023-02-01T16:52:23;10.70;;;1.97;;
77984;SDS011;67177;47.240;-1.546;2023-02-01T16:54:50;8.32;;;1.95;;
77984;SDS011;67177;47.240;-1.546;2023-02-01T16:57:16;10.40;;;2.03;;
77984;SDS011;67177;47.240;-1.546;2023-02-01T16:59:43;13.05;;;2.85;;
77984;SDS011;67177;47.240;-1.546;2023-02-01T17:02:10;12.45;;;2.45;;
77984;SDS011;67177;47.240;-1.546;2023-02-01T17:04:38;8.93;;;2.10;;
77984;SDS011;67177;47.240;-1.546;2023-02-01T17:07:03;12.77;;;2.60;;
77984;SDS011;67177;47.240;-1.546;2023-02-01T17:09:37;12.43;;;2.50;;
77984;SDS011;67177;47.240;-1.546;2023-02-01T17:12:03;10.35;;;2.20;;
77984;SDS011;67177;47.240;-1.546;2023-02-01T17:14:34;9.77;;;2.03;;
77984;SDS011;67177;47.240;-1.546;2023-02-01T17:17:04;9.70;;;2.30;;
77984;SDS011;67177;47.240;-1.546;2023-02-01T17:19:29;11.93;;;2.80;;
77984;SDS011;67177;47.240;-1.546;2023-02-01T17:21:57;8.77;;;2.30;;